Bilogai-Sugapa Airport


Codes: ID-ZGP/UGU
Name: Bilogai-Sugapa Airport
City: Sugapa-Papua Island
Country: Indonesia
Elevation: 7348 ft.

Photos at Bilogai-Sugapa Airport


   Photos courtesy of SpottingLog. You can add your own sightings and photos by signing up for a free trial today.



No photos found.

Weather at Bilogai-Sugapa Airport


Time (UTC)DescriptionTempratureWindCloud coverageVisibilityPressureHumidity
23-May-2024 21:00Overcast Clouds15°C2 mph, S100%10000m1016hPa96%
24-May-2024 00:00Overcast Clouds17°C2 mph, N100%10000m1016hPa92%
24-May-2024 03:00Light Rain20°C4 mph, N97%10000m1013hPa85%
24-May-2024 06:00Light Rain20°C2 mph, N94%6049m1012hPa90%
24-May-2024 09:00Light Rain18°C2 mph, SW100%10000m1014hPa97%
24-May-2024 12:00Light Rain16°C2 mph, S100%10000m1017hPa95%
24-May-2024 15:00Light Rain16°C2 mph, S100%10000m1016hPa94%
24-May-2024 18:00Light Rain16°C2 mph, S100%10000m1015hPa94%
24-May-2024 21:00Light Rain17°C2 mph, S96%10000m1015hPa93%
25-May-2024 00:00Light Rain22°C4 mph, N71%10000m1015hPa76%
25-May-2024 03:00Light Rain22°C4 mph, N57%7986m1013hPa84%
25-May-2024 06:00Moderate Rain20°C4 mph, N77%5291m1012hPa92%
25-May-2024 09:00Moderate Rain18°C2 mph, NE100%469m1015hPa100%
25-May-2024 12:00Light Rain18°C0 mph, S100%3069m1017hPa99%
25-May-2024 15:00Light Rain17°C2 mph, W100%1463m1016hPa99%
25-May-2024 18:00Moderate Rain17°C2 mph, SW100%10000m1015hPa98%
25-May-2024 21:00Light Rain16°C2 mph, SW100%10000m1016hPa97%
26-May-2024 00:00Light Rain19°C2 mph, N100%10000m1016hPa89%
26-May-2024 03:00Moderate Rain21°C4 mph, N95%6540m1014hPa88%
26-May-2024 06:00Moderate Rain18°C2 mph, NW98%10000m1013hPa95%
26-May-2024 09:00Light Rain17°C0 mph, SE100%10000m1015hPa97%
26-May-2024 12:00Light Rain16°C2 mph, S100%10000m1017hPa97%
26-May-2024 15:00Overcast Clouds15°C2 mph, S100%10000m1016hPa96%
26-May-2024 18:00Overcast Clouds16°C2 mph, S100%10000m1014hPa95%
26-May-2024 21:00Overcast Clouds15°C2 mph, S92%10000m1016hPa96%
27-May-2024 00:00Light Rain21°C4 mph, N84%10000m1015hPa79%
27-May-2024 03:00Light Rain20°C2 mph, N86%4511m1013hPa92%
27-May-2024 06:00Light Rain18°C0 mph, NE93%922m1013hPa99%
27-May-2024 09:00Light Rain17°C0 mph, S100%10000m1015hPa98%
27-May-2024 12:00Light Rain16°C2 mph, S100%10000m1016hPa98%
27-May-2024 15:00Overcast Clouds15°C2 mph, S100%10000m1016hPa96%
27-May-2024 18:00Overcast Clouds14°C4 mph, S99%10000m1015hPa97%
27-May-2024 21:00Overcast Clouds14°C4 mph, S100%10000m1016hPa95%
28-May-2024 00:00Broken Clouds21°C2 mph, N79%10000m1014hPa71%
28-May-2024 03:00Light Rain24°C7 mph, N57%10000m1011hPa62%
28-May-2024 06:00Moderate Rain19°C2 mph, N76%2759m1012hPa95%
28-May-2024 09:00Moderate Rain17°C2 mph, N91%1094m1014hPa100%
28-May-2024 12:00Moderate Rain17°C2 mph, S96%10000m1017hPa97%
28-May-2024 15:00Light Rain16°C2 mph, S100%10000m1016hPa97%
28-May-2024 18:00Overcast Clouds15°C2 mph, S93%10000m1014hPa96%